Forside
METAR-TAF:

METAR-TAF

Lufthavne :

Incheon International Airport

Seoul-Incheon, Sydkorea

Breddekreds: 37-28N, længdekreds: 126-27E, højde: 7 m

Aktuelle vejr

Denne rapport blev lavet for 33 minutter siden, kl. 21:30 UTC
Vind 2 kt fra nord
Temperatur 2°C
Fugtighed 51%
Tryk 1024 hPa
Sigt 10 km eller mere
ingen skyer under 1500m og ingen cumulonimbus

METAR: RKSI 162130Z 36002KT CAVOK 02/M07 Q1024 NOSIG

Tid: 07:03 (22:03 UTC)

Vejrudsigter

Denne rapport blev lavet for 5 timer og 3 minutter siden, kl. 17:00 UTC
Foreløbig gælder fra 16 på 18 UTC til 17 på 24 UTC
Vind 10 kt fra nordnordvest
Sigt 10 km eller mere
ingen skyer under 1500m og ingen cumulonimbus
ændring
fra 17 på 12 UTC til 17 på 13 UTC
Vind 6 kt fra nordøst
ændring
fra 17 på 23 UTC til 17 på 24 UTC
Vind 6 kt fra østsydøst

TAF: RKSI 161700Z 1618/1724 34010KT CAVOK TN02/1621Z TX09/1705Z TN01/1721Z BECMG 1712/1713 04006KT BECMG 1723/1724 11006KT

Vejrobservationer og prognoser fra mere end 4000 lufthavne (METAR og TAF).

De gule og røde prikker repræsenterer de meteorologiske stationer.

Flyt musen over at se navnet på stationen.

Så klik over at se vejr observationer og prognoser.

At skifte det kort: Klik på de grønne knapper med et sort kors for at zoome ind; på den grønne knap med en bindestreg for at zoome ud; eller på de grønne pile for tilstødende kort.


METAR-TAF: